Aérodrome :







RETROUVEZ-NOUS SUR...

 
LOGIN :

S'inscrire | Disclaimer

   EN    FR    IT 

 









Légende :    VFR   VFR Marginal   IFR   IFR Intensif   IFR Très Intensif
Visi : 
Plafond : 
>= 8 km
>= 3000ft
5 à 8 km
1000 à 3000 ft
1500m à 5 km
500 à 1000 ft
800 à 1500m
200 à 500 ft
< 800m
< 200 ft
Symboles :   Orages  Brouillard  Fortes neiges  Fortes précipitations  Vent > 20 kt






- Altitude de l'aérodrome : 335 ft
- Code IATA : BTV


KBTV - Burlington International

DERNIER METAR :
  • 020954Z 36009KT 10SM FEW015 OVC021 02/M02 A2983 RMK AO2 SLP104 T00221017

METARs EXPIRÉS :
  • 020854Z AUTO 35009KT 10SM OVC025 02/M02 A2984 RMK AO2 SLP106 T00221017 55004
  • 020834Z AUTO 36008KT 10SM BKN026 OVC033 02/M02 A2983 RMK AO2 T00221017
  • 020819Z AUTO 35011KT 10SM FEW016 BKN033 OVC043 02/M02 A2983 RMK AO2 T00221017
  • 020754Z AUTO 35011KT 10SM BKN016 OVC023 02/M02 A2983 RMK AO2 SLP104 T00221017

TAF KBTV
Valide du 02 à 06h jusqu'au 03 à 06h UTC


020523Z 0206/0306 34008KT P6SM OVC016
FM021200 34010KT P6SM OVC009
FM021600 34011KT 4SM BR VCSH OVC015
FM022200 34010KT 3SM -RA BR OVC009



MET'MAP, la Météo Aéronautique d'un coup d'oeil ! - Copyright ORBIFLY Décembre 2007 - Disclaimer

ORBIFLY MET'MAP TEAM :

Programmation & Développement : Alexandra Zaïnal
Sur une idée originale de : Baudouin d'Aumeries
Assistance à la programmation : Marc-Olivier Méhu
Soutien technique & logistique : Manuel Goepfert

Contact : metmap@orbifly.com




SOURCES & CREDITS :

   NOAA